createdAt,value
2018-08-24T00:00:09.040Z,96168.53
2018-08-24T00:02:36.364Z,96175.80
2018-08-24T00:05:03.689Z,96173.33
2018-08-24T00:07:30.980Z,96162.59
2018-08-24T00:09:58.232Z,96164.09
2018-08-24T00:12:25.580Z,96174.34
2018-08-24T00:14:52.850Z,96163.98
2018-08-24T00:17:25.913Z,96173.04
2018-08-24T00:19:53.290Z,96162.78
2018-08-24T00:22:20.556Z,96160.80
2018-08-24T00:24:47.759Z,96164.09
2018-08-24T00:27:14.996Z,96173.53
2018-08-24T00:29:42.299Z,96173.00
2018-08-24T00:32:09.567Z,96168.71
2018-08-24T00:34:36.833Z,96165.21
2018-08-24T00:37:04.077Z,96163.23
2018-08-24T00:39:31.420Z,96164.22
2018-08-24T00:41:58.726Z,96151.33
2018-08-24T00:44:26.102Z,96153.78
2018-08-24T00:46:53.475Z,96150.36
2018-08-24T00:49:20.784Z,96154.63
2018-08-24T00:51:48.122Z,96148.36
2018-08-24T00:54:15.480Z,96149.67
2018-08-24T00:56:42.848Z,96143.70
2018-08-24T00:59:10.143Z,96145.06
2018-08-24T01:01:37.655Z,96145.72
2018-08-24T01:04:04.984Z,96144.55
2018-08-24T01:06:32.373Z,96147.03
2018-08-24T01:08:59.704Z,96150.97
2018-08-24T01:11:32.657Z,96154.45
2018-08-24T01:13:59.974Z,96156.97
2018-08-24T01:16:32.923Z,96154.64
2018-08-24T01:19:00.230Z,96158.97
2018-08-24T01:21:27.446Z,96163.91
2018-08-24T01:23:54.678Z,96161.94
2018-08-24T01:26:22.984Z,96158.44
2018-08-24T01:28:50.964Z,96161.55
2018-08-24T01:31:18.642Z,96167.85
2018-08-24T01:33:45.952Z,96167.87
2018-08-24T01:36:13.273Z,96171.50
2018-08-24T01:38:40.620Z,96163.91
2018-08-24T01:41:07.896Z,96160.44
2018-08-24T01:43:35.227Z,96163.91
2018-08-24T01:46:08.034Z,96167.16
2018-08-24T01:48:35.396Z,96164.88
2018-08-24T01:51:02.727Z,96171.48
2018-08-24T01:53:30.123Z,96165.21
2018-08-24T01:55:57.558Z,96163.59
2018-08-24T01:58:24.880Z,96165.23
2018-08-24T02:00:52.176Z,96161.27
2018-08-24T02:03:19.508Z,96161.27
2018-08-24T02:05:46.817Z,96154.69
2018-08-24T02:08:14.134Z,96154.05
2018-08-24T02:10:41.422Z,96153.41
2018-08-24T02:13:14.408Z,96140.03
2018-08-24T02:15:46.616Z,96140.05
2018-08-24T02:18:19.657Z,96145.50
2018-08-24T02:20:52.610Z,96137.88
2018-08-24T02:23:19.996Z,96145.80
2018-08-24T02:25:47.307Z,96143.50
2018-08-24T02:28:14.710Z,96152.41
2018-08-24T02:30:42.049Z,96150.43
2018-08-24T02:33:09.437Z,96138.86
2018-08-24T02:35:36.797Z,96144.13
2018-08-24T02:38:04.266Z,96144.12
2018-08-24T02:40:31.622Z,96147.10
2018-08-24T02:42:58.980Z,96140.16
2018-08-24T02:45:26.459Z,96138.51
2018-08-24T02:47:53.778Z,96137.19
2018-08-24T02:50:21.073Z,96140.47
2018-08-24T02:52:48.345Z,96142.10
2018-08-24T02:55:15.615Z,96144.56
2018-08-24T02:57:42.936Z,96146.41
2018-08-24T03:00:10.371Z,96147.72
2018-08-24T03:02:37.798Z,96157.80
2018-08-24T03:05:05.177Z,96159.63
2018-08-24T03:07:32.439Z,96158.94
2018-08-24T03:09:59.797Z,96153.96
2018-08-24T03:12:27.047Z,96153.30
2018-08-24T03:14:54.303Z,96152.49
2018-08-24T03:17:27.156Z,96145.03
2018-08-24T03:19:54.525Z,96141.41
2018-08-24T03:22:22.041Z,96139.39
2018-08-24T03:24:49.285Z,96131.98
2018-08-24T03:27:16.586Z,96127.18
2018-08-24T03:29:43.879Z,96137.44
2018-08-24T03:32:11.154Z,96138.42
2018-08-24T03:34:38.428Z,96133.62
2018-08-24T03:37:06.271Z,96131.67
2018-08-24T03:39:33.584Z,96129.03
2018-08-24T03:42:00.956Z,96130.15
2018-08-24T03:44:28.204Z,96133.48
2018-08-24T03:46:55.616Z,96133.30
2018-08-24T03:49:23.059Z,96131.80
2018-08-24T03:51:50.332Z,96138.38
2018-08-24T03:54:20.650Z,96139.18
2018-08-24T03:56:54.583Z,96153.04
2018-08-24T03:59:22.292Z,96155.53
2018-08-24T04:01:49.622Z,96160.48
2018-08-24T04:04:16.902Z,96154.54
2018-08-24T04:06:44.166Z,96174.19
2018-08-24T04:09:11.952Z,96171.55
2018-08-24T04:11:39.276Z,96163.12
2018-08-24T04:14:06.580Z,96168.09
2018-08-24T04:16:39.501Z,96167.95
2018-08-24T04:19:11.323Z,96160.54
2018-08-24T04:21:38.632Z,96154.90
2018-08-24T04:24:05.919Z,96160.03
2018-08-24T04:26:33.199Z,96162.19
2018-08-24T04:29:00.505Z,96165.49
2018-08-24T04:31:27.725Z,96167.14
2018-08-24T04:33:55.059Z,96166.69
2018-08-24T04:36:22.376Z,96174.45
2018-08-24T04:38:49.636Z,96172.47
2018-08-24T04:41:16.868Z,96168.69
2018-08-24T04:43:44.107Z,96173.46
2018-08-24T04:46:11.411Z,96173.48
2018-08-24T04:48:38.795Z,96177.78
2018-08-24T04:51:06.047Z,96174.78
2018-08-24T04:53:33.354Z,96172.50
2018-08-24T04:56:00.719Z,96181.59
2018-08-24T04:58:27.982Z,96184.71
2018-08-24T05:00:55.190Z,96180.75
2018-08-24T05:03:22.504Z,96178.11
2018-08-24T05:05:49.851Z,96180.59
2018-08-24T05:08:17.051Z,96179.10
2018-08-24T05:10:44.368Z,96181.77
2018-08-24T05:13:11.655Z,96181.77
2018-08-24T05:15:38.999Z,96185.11
2018-08-24T05:18:06.382Z,96192.56
2018-08-24T05:20:33.660Z,96190.48
2018-08-24T05:23:01.080Z,96194.60
2018-08-24T05:25:28.339Z,96196.92
2018-08-24T05:27:55.638Z,96193.16
2018-08-24T05:30:22.844Z,96198.27
2018-08-24T05:32:50.076Z,96193.80
2018-08-24T05:35:17.323Z,96199.27
2018-08-24T05:37:44.576Z,96207.84
2018-08-24T05:40:11.821Z,96209.48
2018-08-24T05:42:39.137Z,96210.60
2018-08-24T05:45:06.403Z,96210.56
2018-08-24T05:47:33.738Z,96214.85
2018-08-24T05:50:01.039Z,96218.88
2018-08-24T05:52:28.297Z,96220.55
2018-08-24T05:54:55.611Z,96214.61
2018-08-24T05:57:22.879Z,96222.52
2018-08-24T05:59:50.234Z,96218.88
2018-08-24T06:02:17.543Z,96219.58
2018-08-24T06:04:44.798Z,96221.24
2018-08-24T06:07:11.999Z,96222.25
2018-08-24T06:09:39.242Z,96222.23
2018-08-24T06:12:06.816Z,96223.90
2018-08-24T06:14:34.054Z,96218.28
2018-08-24T06:17:06.973Z,96217.12
2018-08-24T06:19:34.242Z,96207.20
2018-08-24T06:22:01.496Z,96215.63
2018-08-24T06:24:28.780Z,96224.25
2018-08-24T06:26:56.041Z,96211.66
2018-08-24T06:29:23.457Z,96218.28
2018-08-24T06:31:50.835Z,96221.07
2018-08-24T06:34:18.111Z,96221.59
2018-08-24T06:36:45.532Z,96223.72
2018-08-24T06:39:13.581Z,96218.62
2018-08-24T06:41:41.234Z,96220.09
2018-08-24T06:44:08.507Z,96220.59
2018-08-24T06:46:35.761Z,96217.95
2018-08-24T06:49:03.159Z,96218.61
2018-08-24T06:51:30.494Z,96222.73
2018-08-24T06:53:57.815Z,96237.45
2018-08-24T06:56:25.083Z,96235.16
2018-08-24T06:58:52.312Z,96231.86
2018-08-24T07:01:19.605Z,96233.85
2018-08-24T07:03:46.870Z,96234.85
2018-08-24T07:06:14.126Z,96235.15
2018-08-24T07:08:41.441Z,96235.97
2018-08-24T07:11:08.707Z,96243.41
2018-08-24T07:13:36.068Z,96232.49
2018-08-24T07:16:03.436Z,96242.08
2018-08-24T07:18:35.211Z,96242.59
2018-08-24T07:21:02.579Z,96238.48
2018-08-24T07:23:29.875Z,96239.97
2018-08-24T07:25:57.170Z,96239.80
2018-08-24T07:28:24.399Z,96242.63
2018-08-24T07:30:51.718Z,96248.70
2018-08-24T07:33:18.974Z,96247.04
2018-08-24T07:35:49.514Z,96247.38
2018-08-24T07:38:17.001Z,96251.34
2018-08-24T07:40:44.289Z,96254.65
2018-08-24T07:43:11.622Z,96254.97
2018-08-24T07:45:38.838Z,96257.27
2018-08-24T07:48:06.115Z,96262.86
2018-08-24T07:50:33.345Z,96264.02
2018-08-24T07:53:00.637Z,96263.34
2018-08-24T07:55:27.903Z,96266.83
2018-08-24T07:57:55.214Z,96252.97
2018-08-24T08:00:22.512Z,96250.37
2018-08-24T08:02:49.739Z,96252.38
2018-08-24T08:05:17.080Z,96252.52
2018-08-24T08:07:44.438Z,96255.75
2018-08-24T08:10:11.724Z,96263.41
2018-08-24T08:12:39.139Z,96257.38
2018-08-24T08:15:08.433Z,96258.52
2018-08-24T08:17:37.676Z,96258.73
2018-08-24T08:20:05.270Z,96256.88
2018-08-24T08:22:32.643Z,96264.14
2018-08-24T08:24:59.912Z,96267.14
2018-08-24T08:27:27.201Z,96261.59
2018-08-24T08:30:02.399Z,96264.16
2018-08-24T08:32:30.243Z,96262.12
2018-08-24T08:34:57.480Z,96261.30
2018-08-24T08:37:24.779Z,96261.49
2018-08-24T08:39:52.626Z,96258.13
2018-08-24T08:42:20.309Z,96265.06
2018-08-24T08:44:47.664Z,96259.13
2018-08-24T08:47:15.150Z,96268.28
2018-08-24T08:49:42.411Z,96271.59
2018-08-24T08:52:10.348Z,96258.47
2018-08-24T08:54:37.599Z,96259.64
2018-08-24T08:57:04.826Z,96259.55
2018-08-24T08:59:32.105Z,96263.16
2018-08-24T09:01:59.378Z,96255.40
2018-08-24T09:04:26.746Z,96266.93
2018-08-24T09:06:54.022Z,96261.46
2018-08-24T09:09:22.076Z,96265.61
2018-08-24T09:11:49.470Z,96269.41
2018-08-24T09:14:17.675Z,96271.70
2018-08-24T09:16:45.037Z,96269.81
2018-08-24T09:19:18.731Z,96273.77
2018-08-24T09:21:51.515Z,96280.41
2018-08-24T09:24:24.406Z,96286.73
2018-08-24T09:26:57.360Z,96276.17
2018-08-24T09:29:28.334Z,96282.70
2018-08-24T09:31:56.761Z,96285.27
2018-08-24T09:34:24.066Z,96288.47
2018-08-24T09:36:51.306Z,96284.52
2018-08-24T09:39:24.081Z,96285.88
2018-08-24T09:41:51.382Z,96286.22
2018-08-24T09:44:18.652Z,96280.58
2018-08-24T09:46:51.601Z,96278.38
2018-08-24T09:49:24.398Z,96269.88
2018-08-24T09:51:51.729Z,96273.37
2018-08-24T09:54:19.026Z,96267.06
2018-08-24T09:56:46.301Z,96255.09
2018-08-24T09:59:13.592Z,96258.83
2018-08-24T10:01:46.530Z,96260.47
2018-08-24T10:04:19.867Z,96255.58
2018-08-24T10:06:52.904Z,96246.72
2018-08-24T10:09:20.205Z,96241.99
2018-08-24T10:11:47.660Z,96240.83
2018-08-24T10:14:14.971Z,96235.69
2018-08-24T10:16:42.254Z,96236.94
2018-08-24T10:19:14.440Z,96240.73
2018-08-24T10:21:41.718Z,96264.88
2018-08-24T10:24:09.279Z,96277.05
2018-08-24T10:26:36.606Z,96286.98
2018-08-24T10:29:04.274Z,96301.17
2018-08-24T10:31:31.563Z,96305.59
2018-08-24T10:33:59.064Z,96326.30
2018-08-24T10:36:26.513Z,96319.72
2018-08-24T10:38:53.785Z,96341.77
2018-08-24T10:41:21.051Z,96339.30
2018-08-24T10:43:48.390Z,96354.70
2018-08-24T10:46:15.738Z,96370.33
2018-08-24T10:48:43.683Z,96364.25
2018-08-24T10:51:10.994Z,96363.98
2018-08-24T10:53:38.290Z,96369.52
2018-08-24T10:56:05.840Z,96373.53
2018-08-24T10:58:33.132Z,96373.80
2018-08-24T11:01:00.453Z,96369.29
2018-08-24T11:03:27.724Z,96383.98
2018-08-24T11:05:55.998Z,96378.59
2018-08-24T11:08:23.301Z,96362.36
2018-08-24T11:10:50.627Z,96365.34
2018-08-24T11:13:17.862Z,96364.41
2018-08-24T11:15:47.986Z,96373.49
2018-08-24T11:18:15.305Z,96364.96
2018-08-24T11:20:42.548Z,96368.78
2018-08-24T11:23:09.941Z,96370.77
2018-08-24T11:25:37.355Z,96364.55
2018-08-24T11:28:04.643Z,96354.39
2018-08-24T11:30:31.923Z,96357.56
2018-08-24T11:32:59.163Z,96356.09
2018-08-24T11:35:26.534Z,96347.23
2018-08-24T11:37:55.083Z,96353.16
2018-08-24T11:40:22.513Z,96364.85
2018-08-24T11:42:49.756Z,96364.70
2018-08-24T11:45:17.114Z,96365.37
2018-08-24T11:47:44.518Z,96371.03
2018-08-24T11:50:11.839Z,96374.31
2018-08-24T11:52:39.156Z,96373.78
2018-08-24T11:55:06.470Z,96358.49
2018-08-24T11:57:33.748Z,96355.09
2018-08-24T12:00:01.122Z,96357.09
2018-08-24T12:02:28.434Z,96375.88
2018-08-24T12:04:55.706Z,96385.63
2018-08-24T12:07:22.975Z,96386.11
2018-08-24T12:09:50.280Z,96381.88
2018-08-24T12:12:17.646Z,96385.45
2018-08-24T12:14:44.900Z,96391.06
2018-08-24T12:17:16.732Z,96393.61
2018-08-24T12:19:44.069Z,96393.41
2018-08-24T12:22:11.377Z,96389.18
2018-08-24T12:24:38.591Z,96394.77
2018-08-24T12:27:05.904Z,96389.67
2018-08-24T12:29:33.223Z,96387.25
2018-08-24T12:32:00.574Z,96396.42
2018-08-24T12:34:27.872Z,96388.68
2018-08-24T12:36:55.114Z,96394.84
2018-08-24T12:39:22.421Z,96393.56
2018-08-24T12:41:49.752Z,96391.88
2018-08-24T12:44:17.132Z,96390.98
2018-08-24T12:46:44.391Z,96394.37
2018-08-24T12:49:11.788Z,96392.02
2018-08-24T12:51:39.071Z,96401.03
2018-08-24T12:54:06.886Z,96401.71
2018-08-24T12:56:34.209Z,96393.94
2018-08-24T12:59:01.485Z,96393.28
2018-08-24T13:01:28.776Z,96387.48
2018-08-24T13:03:56.009Z,96394.39
2018-08-24T13:06:23.275Z,96401.86
2018-08-24T13:08:50.524Z,96401.76
2018-08-24T13:11:17.801Z,96393.83
2018-08-24T13:13:45.106Z,96390.91
2018-08-24T13:16:12.327Z,96391.32
2018-08-24T13:18:39.647Z,96390.33
2018-08-24T13:21:06.986Z,96387.73
2018-08-24T13:23:34.659Z,96384.69
2018-08-24T13:26:01.943Z,96385.97
2018-08-24T13:28:29.246Z,96384.62
2018-08-24T13:30:56.494Z,96381.62
2018-08-24T13:33:23.813Z,96372.30
2018-08-24T13:35:51.127Z,96366.79
2018-08-24T13:38:18.377Z,96360.50
2018-08-24T13:40:45.690Z,96362.48
2018-08-24T13:43:13.068Z,96357.52
2018-08-24T13:45:40.352Z,96347.67
2018-08-24T13:48:07.675Z,96347.84
2018-08-24T13:50:34.991Z,96351.30
2018-08-24T13:53:02.347Z,96361.54
2018-08-24T13:55:29.738Z,96358.10
2018-08-24T13:57:57.544Z,96362.34
2018-08-24T14:00:25.664Z,96353.94
2018-08-24T14:02:52.958Z,96361.52
2018-08-24T14:05:20.322Z,96358.61
2018-08-24T14:07:47.539Z,96355.25
2018-08-24T14:10:14.787Z,96362.07
2018-08-24T14:12:42.054Z,96355.02
2018-08-24T14:15:09.330Z,96351.70
2018-08-24T14:17:36.683Z,96355.16
2018-08-24T14:20:03.993Z,96355.34
2018-08-24T14:22:31.313Z,96354.94
2018-08-24T14:24:58.542Z,96352.42
2018-08-24T14:27:25.793Z,96355.19
2018-08-24T14:29:53.047Z,96352.06
2018-08-24T14:32:20.374Z,96350.21
2018-08-24T14:34:47.621Z,96355.48
2018-08-24T14:37:14.907Z,96356.34
2018-08-24T14:39:42.175Z,96356.47
2018-08-24T14:42:09.456Z,96353.62
2018-08-24T14:44:36.823Z,96350.29
2018-08-24T14:47:05.357Z,96345.74
2018-08-24T14:49:32.754Z,96343.17
2018-08-24T14:52:00.102Z,96345.10
2018-08-24T14:54:27.389Z,96341.20
2018-08-24T14:56:54.695Z,96345.41
2018-08-24T14:59:21.996Z,96346.39
2018-08-24T15:01:49.308Z,96334.02
2018-08-24T15:04:16.593Z,96328.42
2018-08-24T15:06:43.862Z,96332.28
2018-08-24T15:09:11.577Z,96334.31
2018-08-24T15:11:39.060Z,96339.11
2018-08-24T15:14:06.777Z,96340.47
2018-08-24T15:16:34.093Z,96337.05
2018-08-24T15:19:01.639Z,96340.84
2018-08-24T15:21:28.949Z,96346.11
2018-08-24T15:23:56.437Z,96340.13
2018-08-24T15:26:23.729Z,96337.06
2018-08-24T15:28:50.995Z,96329.54
2018-08-24T15:31:18.275Z,96333.69
2018-08-24T15:33:46.045Z,96337.98
2018-08-24T15:36:13.265Z,96333.56
2018-08-24T15:38:40.579Z,96337.84
2018-08-24T15:41:07.859Z,96339.50
2018-08-24T15:43:35.178Z,96341.63
2018-08-24T15:46:02.547Z,96337.34
2018-08-24T15:48:29.936Z,96340.95
2018-08-24T15:50:57.387Z,96337.54
2018-08-24T15:53:24.678Z,96335.37
2018-08-24T15:55:52.005Z,96336.05
2018-08-24T15:58:19.260Z,96334.43
2018-08-24T16:00:46.513Z,96335.58
2018-08-24T16:03:13.802Z,96333.22
2018-08-24T16:05:41.771Z,96333.11
2018-08-24T16:08:09.180Z,96322.66
2018-08-24T16:10:36.508Z,96313.55
2018-08-24T16:13:03.903Z,96312.67
2018-08-24T16:15:31.159Z,96313.51
2018-08-24T16:18:04.045Z,96308.17
2018-08-24T16:20:31.716Z,96304.43
2018-08-24T16:22:58.925Z,96304.53
2018-08-24T16:25:26.276Z,96309.83
2018-08-24T16:27:53.519Z,96312.56
2018-08-24T16:30:20.870Z,96318.94
2018-08-24T16:32:48.280Z,96312.28
2018-08-24T16:35:15.841Z,96279.70
2018-08-24T16:37:43.132Z,96315.14
2018-08-24T16:40:11.454Z,96319.29
2018-08-24T16:42:38.686Z,96307.33
2018-08-24T16:45:05.974Z,96311.91
2018-08-24T16:47:33.222Z,96313.33
2018-08-24T16:50:00.505Z,96312.36
2018-08-24T16:52:27.844Z,96310.35
2018-08-24T16:54:55.041Z,96302.59
2018-08-24T16:57:22.277Z,96302.94
2018-08-24T16:59:52.962Z,96299.97
2018-08-24T17:02:20.276Z,96290.46
2018-08-24T17:04:47.576Z,96288.92
2018-08-24T17:07:14.937Z,96285.38
2018-08-24T17:09:42.260Z,96289.71
2018-08-24T17:12:09.586Z,96292.84
2018-08-24T17:14:36.853Z,96296.89
2018-08-24T17:17:04.392Z,96303.13
2018-08-24T17:19:32.309Z,96300.85
2018-08-24T17:21:59.573Z,96309.64
2018-08-24T17:24:26.855Z,96308.83
2018-08-24T17:26:54.152Z,96311.46
2018-08-24T17:29:21.494Z,96308.55
2018-08-24T17:31:48.832Z,96314.23
2018-08-24T17:34:16.215Z,96311.01
2018-08-24T17:36:43.495Z,96320.84
2018-08-24T17:39:11.803Z,96313.78
2018-08-24T17:41:39.209Z,96322.38
2018-08-24T17:44:06.520Z,96319.80
2018-08-24T17:46:33.794Z,96312.88
2018-08-24T17:49:01.292Z,96312.97
2018-08-24T17:51:28.568Z,96309.36
2018-08-24T17:53:55.799Z,96309.07
2018-08-24T17:56:23.027Z,96314.48
2018-08-24T17:58:50.280Z,96314.20
2018-08-24T18:01:17.571Z,96307.45
2018-08-24T18:03:44.819Z,96306.27
2018-08-24T18:06:12.462Z,96314.41
2018-08-24T18:08:39.771Z,96306.81
2018-08-24T18:11:07.156Z,96303.55
2018-08-24T18:13:34.389Z,96309.57
2018-08-24T18:16:01.618Z,96307.79
2018-08-24T18:18:28.890Z,96305.97
2018-08-24T18:20:56.164Z,96309.57
2018-08-24T18:23:23.349Z,96321.27
2018-08-24T18:25:50.536Z,96322.50
2018-08-24T18:28:17.796Z,96326.52
2018-08-24T18:30:45.211Z,96326.59
2018-08-24T18:33:12.491Z,96330.66
2018-08-24T18:35:39.829Z,96328.78
2018-08-24T18:38:07.071Z,96333.91
2018-08-24T18:40:34.307Z,96341.33
2018-08-24T18:43:01.634Z,96354.64
2018-08-24T18:45:28.918Z,96358.75
2018-08-24T18:47:56.311Z,96358.88
2018-08-24T18:50:23.694Z,96361.50
2018-08-24T18:52:50.994Z,96364.76
2018-08-24T18:55:18.206Z,96369.17
2018-08-24T18:57:45.527Z,96377.70
2018-08-24T19:00:12.764Z,96372.57
2018-08-24T19:02:40.134Z,96376.92
2018-08-24T19:05:07.482Z,96370.70
2018-08-24T19:07:34.744Z,96374.23
2018-08-24T19:10:02.215Z,96380.59
2018-08-24T19:12:29.846Z,96380.87
2018-08-24T19:14:57.788Z,96388.59
2018-08-24T19:17:30.623Z,96382.43
2018-08-24T19:20:03.537Z,96388.13
2018-08-24T19:22:30.808Z,96388.81
2018-08-24T19:24:58.127Z,96387.78
2018-08-24T19:27:31.050Z,96387.63
2018-08-24T19:30:03.844Z,96397.16
2018-08-24T19:32:31.168Z,96396.53
2018-08-24T19:34:58.460Z,96395.09
2018-08-24T19:37:25.838Z,96396.75
2018-08-24T19:39:58.716Z,96398.00
2018-08-24T19:42:26.357Z,96399.95
2018-08-24T19:44:54.247Z,96394.88
2018-08-24T19:49:32.039Z,96396.69
2018-08-24T19:51:59.387Z,96391.69
2018-08-24T19:54:26.691Z,96395.50
2018-08-24T19:56:53.969Z,96406.48
2018-08-24T19:59:21.276Z,96410.57
2018-08-24T20:01:48.533Z,96405.95
2018-08-24T20:04:15.754Z,96401.45
2018-08-24T20:06:48.592Z,96410.20
2018-08-24T20:09:21.477Z,96407.38
2018-08-24T20:11:50.068Z,96407.56
2018-08-24T20:14:22.952Z,96398.25
2018-08-24T20:16:55.919Z,96403.22
2018-08-24T20:19:23.253Z,96398.78
2018-08-24T20:21:50.586Z,96399.34
2018-08-24T20:24:18.044Z,96403.73
2018-08-24T20:26:45.432Z,96399.84
2018-08-24T20:29:12.685Z,96397.03
2018-08-24T20:31:39.963Z,96400.91
2018-08-24T20:34:07.290Z,96398.09
2018-08-24T20:36:34.520Z,96406.92
2018-08-24T20:39:01.901Z,96404.86
2018-08-24T20:41:29.213Z,96402.51
2018-08-24T20:43:56.525Z,96403.13
2018-08-24T20:46:23.784Z,96398.00
2018-08-24T20:48:51.101Z,96401.20
2018-08-24T20:51:18.388Z,96403.63
2018-08-24T20:53:45.640Z,96403.73
2018-08-24T20:56:13.014Z,96400.06
2018-08-24T20:58:40.308Z,96400.94
2018-08-24T21:01:07.642Z,96415.16
2018-08-24T21:03:35.021Z,96408.59
2018-08-24T21:06:04.035Z,96404.09
2018-08-24T21:08:31.328Z,96407.28
2018-08-24T21:10:58.558Z,96407.50
2018-08-24T21:13:25.739Z,96414.77
2018-08-24T21:15:53.024Z,96412.64
2018-08-24T21:18:20.422Z,96405.89
2018-08-24T21:20:47.780Z,96410.89
2018-08-24T21:23:15.299Z,96403.04
2018-08-24T21:25:42.633Z,96413.02
2018-08-24T21:28:09.855Z,96411.83
2018-08-24T21:30:37.127Z,96411.33
2018-08-24T21:33:04.502Z,96414.86
2018-08-24T21:35:31.694Z,96413.72
2018-08-24T21:37:58.953Z,96410.25
2018-08-24T21:40:26.257Z,96405.84
2018-08-24T21:42:53.582Z,96406.09
2018-08-24T21:45:20.912Z,96405.69
2018-08-24T21:47:48.212Z,96399.55
2018-08-24T21:50:15.532Z,96400.86
2018-08-24T21:52:42.852Z,96396.80
2018-08-24T21:55:10.206Z,96401.83
2018-08-24T21:57:37.522Z,96398.73
2018-08-24T22:00:09.017Z,96393.38
2018-08-24T22:02:36.289Z,96402.40
2018-08-24T22:05:03.588Z,96390.19
2018-08-24T22:07:30.859Z,96391.05
2018-08-24T22:09:58.106Z,96390.98
2018-08-24T22:12:25.417Z,96389.33
2018-08-24T22:14:52.726Z,96392.46
2018-08-24T22:17:20.015Z,96393.67
2018-08-24T22:19:47.314Z,96393.59
2018-08-24T22:22:14.611Z,96392.17
2018-08-24T22:24:41.872Z,96387.02
2018-08-24T22:27:09.071Z,96387.61
2018-08-24T22:29:36.417Z,96389.81
2018-08-24T22:32:03.730Z,96389.47
2018-08-24T22:34:31.021Z,96390.08
2018-08-24T22:36:58.232Z,96389.13
2018-08-24T22:39:25.539Z,96388.16
2018-08-24T22:41:52.839Z,96378.94
2018-08-24T22:44:20.108Z,96373.63
2018-08-24T22:46:47.307Z,96373.08
2018-08-24T22:49:14.625Z,96367.48
2018-08-24T22:51:41.928Z,96363.72
2018-08-24T22:54:09.195Z,96362.83
2018-08-24T22:56:36.614Z,96357.97
2018-08-24T22:59:04.318Z,96355.77
2018-08-24T23:01:31.612Z,96361.41
2018-08-24T23:03:58.937Z,96353.54
2018-08-24T23:06:26.177Z,96360.39
2018-08-24T23:08:53.404Z,96348.83
2018-08-24T23:11:20.717Z,96354.30
2018-08-24T23:13:47.983Z,96347.75
2018-08-24T23:16:15.317Z,96359.59
2018-08-24T23:18:42.567Z,96356.05
2018-08-24T23:21:09.820Z,96361.06
2018-08-24T23:23:37.143Z,96353.44
2018-08-24T23:26:04.500Z,96355.61
2018-08-24T23:28:31.748Z,96346.00
2018-08-24T23:30:59.093Z,96349.22
2018-08-24T23:33:26.404Z,96349.70
2018-08-24T23:35:53.740Z,96347.31
2018-08-24T23:38:21.006Z,96350.53
2018-08-24T23:40:48.229Z,96353.98
2018-08-24T23:43:15.497Z,96350.30
2018-08-24T23:45:42.882Z,96354.69
2018-08-24T23:48:10.132Z,96351.16
2018-08-24T23:50:37.380Z,96354.73
2018-08-24T23:53:04.607Z,96356.74
2018-08-24T23:55:31.984Z,96358.97
2018-08-24T23:57:59.236Z,96347.34
